Time;durP1;ratioP1;P1;durP2;ratioP2;P2;SDS_P1;SDS_P2;PMS_P1;PMS_P2;Temp;Humidity;BMP_temperature;BMP_pressure;BME280_temperature;BME280_humidity;BME280_pressure;Samples;Min_cycle;Max_cycle;Signal;HPM_P1;HPM_P2
2023/04/25 00:02:39;;;;;;;4.44;3.52;;;;;;;10.17;74.79;98573.22;7314621;39;20283;31
2023/04/25 00:08:13;;;;;;;4.20;3.27;;;;;;;10.15;75.15;98569.84;7336061;39;20302;31
2023/04/25 00:13:31;;;;;;;3.45;3.10;;;;;;;10.12;75.82;98567.50;7345222;39;20361;31
2023/04/25 00:24:06;;;;;;;4.00;3.30;;;;;;;10.21;74.78;98566.47;7309596;39;21167;31
2023/04/25 00:29:27;;;;;;;4.40;3.50;;;;;;;10.20;75.30;98562.09;7321011;39;20263;31
2023/04/25 00:34:44;;;;;;;3.80;3.35;;;;;;;10.17;75.54;98556.22;7254219;40;20401;31
2023/04/25 00:45:22;;;;;;;3.40;2.90;;;;;;;10.07;75.45;98551.03;7330295;39;20281;31
2023/04/25 00:50:54;;;;;;;3.40;3.10;;;;;;;10.11;75.40;98538.88;7382738;39;20309;31
2023/04/25 00:56:30;;;;;;;3.83;3.10;;;;;;;10.09;75.44;98545.50;7337142;39;20233;31
2023/04/25 01:02:02;;;;;;;3.07;2.70;;;;;;;10.12;75.52;98547.81;7294907;39;20278;31
2023/04/25 01:07:34;;;;;;;3.27;2.70;;;;;;;10.16;75.12;98541.91;7294574;39;20256;31
2023/04/25 01:13:09;;;;;;;3.53;2.70;;;;;;;10.19;75.69;98540.72;7317760;39;20353;31
2023/04/25 01:18:42;;;;;;;3.03;2.77;;;;;;;10.20;75.07;98554.00;7280164;39;20259;31
2023/04/25 01:24:15;;;;;;;3.63;3.30;;;;;;;10.06;75.38;98557.44;7336879;39;20344;31
2023/04/25 01:29:50;;;;;;;3.43;3.00;;;;;;;10.04;76.38;98546.03;7315080;39;20319;31
2023/04/25 01:35:21;;;;;;;3.67;3.13;;;;;;;10.01;75.82;98542.81;7295420;40;20252;31
2023/04/25 01:40:54;;;;;;;4.47;3.10;;;;;;;10.03;76.08;98541.66;7307390;39;20255;31
2023/04/25 01:46:30;;;;;;;3.43;3.13;;;;;;;9.99;76.60;98552.94;7310794;39;20268;31
2023/04/25 01:51:47;;;;;;;3.43;3.13;;;;;;;9.90;76.25;98547.63;7333980;39;20271;31
2023/04/25 01:57:24;;;;;;;4.65;3.10;;;;;;;9.91;76.35;98538.53;7352082;39;20225;31
2023/04/25 02:03:25;;;;;;;3.93;3.17;;;;;;;10.04;76.68;98539.78;7380019;39;20436;31
2023/04/25 02:09:00;;;;;;;3.70;3.40;;;;;;;10.03;76.42;98548.88;7361431;39;20350;31
2023/04/25 02:14:31;;;;;;;4.30;3.20;;;;;;;9.94;76.94;98545.41;7397119;39;20262;31
2023/04/25 02:20:03;;;;;;;4.30;3.20;;;;;;;9.91;76.38;98543.09;7376719;39;20255;31
2023/04/25 02:25:36;;;;;;;3.77;3.37;;;;;;;9.89;77.04;98543.25;7421118;39;21091;31
2023/04/25 02:36:32;;;;;;;3.80;3.30;;;;;;;9.78;76.50;98535.59;7373754;39;20508;31
2023/04/25 02:42:05;;;;;;;3.50;3.20;;;;;;;9.78;76.47;98522.16;7378203;39;20285;31
2023/04/25 02:52:46;;;;;;;4.10;3.20;;;;;;;9.89;76.32;98526.25;7382393;39;20296;31
2023/04/25 02:58:18;;;;;;;3.20;2.90;;;;;;;9.94;76.10;98522.03;7447451;39;21201;31
2023/04/25 03:03:53;;;;;;;7.70;3.30;;;;;;;9.94;75.59;98526.56;7426708;39;20275;31
2023/04/25 03:09:27;;;;;;;6.33;3.40;;;;;;;9.91;75.53;98521.56;7377354;39;20340;31
2023/04/25 03:14:47;;;;;;;4.27;3.60;;;;;;;9.88;75.52;98527.28;7315855;39;20287;31
2023/04/25 03:20:23;;;;;;;4.57;4.10;;;;;;;9.85;75.59;98530.31;7377951;39;20254;31
2023/04/25 03:25:56;;;;;;;4.90;3.87;;;;;;;9.83;75.94;98510.81;7317142;39;20347;31
2023/04/25 03:31:13;;;;;;;4.27;3.87;;;;;;;9.81;75.77;98516.41;7303317;39;20290;31
2023/04/25 03:41:54;;;;;;;5.90;4.50;;;;;;;9.70;75.80;98514.09;7390119;39;21272;31
2023/04/25 03:47:26;;;;;;;6.07;4.63;;;;;;;9.69;76.95;98519.69;7376166;39;20253;31
2023/04/25 03:52:58;;;;;;;5.10;4.60;;;;;;;9.77;76.53;98517.78;7380775;39;20247;31
2023/04/25 03:58:31;;;;;;;5.73;4.40;;;;;;;9.80;76.43;98525.47;7397461;39;20536;31
2023/04/25 04:03:51;;;;;;;5.03;4.53;;;;;;;9.78;75.99;98514.06;7424361;39;21203;31
2023/04/25 04:09:27;;;;;;;5.23;4.73;;;;;;;9.79;76.66;98515.72;7358631;39;20235;31
2023/04/25 04:14:59;;;;;;;5.70;4.53;;;;;;;9.78;76.25;98511.38;7337330;39;20244;31
2023/04/25 04:20:19;;;;;;;5.13;4.60;;;;;;;9.77;76.77;98515.09;7356256;39;20258;31
2023/04/25 04:25:54;;;;;;;5.20;4.47;;;;;;;9.78;76.66;98516.75;7387727;39;20243;31
2023/04/25 04:31:28;;;;;;;5.27;4.60;;;;;;;9.78;76.70;98508.69;7365407;39;20243;31
2023/04/25 04:37:03;;;;;;;5.63;4.57;;;;;;;9.78;76.55;98522.16;7355008;39;20270;31
2023/04/25 04:42:21;;;;;;;5.20;4.70;;;;;;;9.73;76.66;98516.47;7378781;39;20254;31
2023/04/25 04:47:57;;;;;;;6.10;5.40;;;;;;;9.74;76.79;98515.41;7386167;39;20342;31
2023/04/25 04:53:29;;;;;;;6.40;5.80;;;;;;;9.72;77.19;98513.94;7355667;39;20279;31
2023/04/25 05:04:10;;;;;;;7.58;6.00;;;;;;;9.81;76.80;98532.53;7335618;39;21051;31
2023/04/25 05:14:49;;;;;;;6.77;6.10;;;;;;;9.82;76.43;98526.16;7367197;39;21106;31
2023/04/25 05:20:23;;;;;;;7.90;6.67;;;;;;;9.69;77.01;98536.66;7355295;39;20434;31
2023/04/25 05:25:58;;;;;;;6.83;5.90;;;;;;;9.78;77.20;98532.91;7360319;39;20244;31
2023/04/25 05:31:15;;;;;;;8.07;7.17;;;;;;;9.86;76.98;98548.16;7339141;39;20251;31
2023/04/25 05:36:49;;;;;;;6.70;6.00;;;;;;;9.76;77.72;98572.59;7293224;39;20248;31
2023/04/25 05:42:07;;;;;;;6.93;6.07;;;;;;;9.61;78.28;98574.34;7321284;39;20245;31
2023/04/25 05:47:23;;;;;;;6.80;5.50;;;;;;;9.58;78.57;98573.88;7315803;39;20340;31
2023/04/25 05:52:56;;;;;;;6.40;5.80;;;;;;;9.61;78.75;98573.53;7357499;39;21381;31
2023/04/25 06:03:32;;;;;;;6.43;5.73;;;;;;;9.82;78.22;98571.06;7378566;39;21158;31
2023/04/25 06:09:03;;;;;;;6.83;6.00;;;;;;;9.94;78.65;98575.87;7378056;39;20251;31
2023/04/25 06:14:24;;;;;;;6.60;5.95;;;;;;;10.03;77.89;98573.94;7188963;39;20232;31
2023/04/25 06:19:55;;;;;;;7.57;6.70;;;;;;;10.10;77.96;98579.44;7447319;39;21199;31
2023/04/25 06:25:28;;;;;;;9.40;7.10;;;;;;;10.08;78.21;98576.13;7430493;39;21860;31
2023/04/25 06:30:46;;;;;;;7.60;6.77;;;;;;;10.10;77.78;98574.06;7444750;39;21831;31
2023/04/25 06:36:04;;;;;;;8.00;7.20;;;;;;;10.08;78.01;98576.94;7423463;39;20262;31
2023/04/25 06:41:36;;;;;;;7.53;6.83;;;;;;;10.05;78.37;98585.38;7425318;39;21204;31
2023/04/25 06:47:07;;;;;;;16.27;12.93;;;;;;;10.02;77.62;98584.88;7402757;39;21263;31
2023/04/25 06:52:25;;;;;;;13.17;10.93;;;;;;;10.11;78.15;98583.81;7356070;39;20332;31
2023/04/25 06:57:57;;;;;;;12.73;11.40;;;;;;;10.07;78.18;98601.34;7354147;39;20259;31
2023/04/25 07:03:30;;;;;;;9.60;8.30;;;;;;;10.02;78.32;98603.75;7315424;39;20322;31
2023/04/25 07:08:47;;;;;;;9.35;8.35;;;;;;;10.12;78.77;98609.75;7298498;39;20341;31
2023/04/25 07:19:26;;;;;;;9.25;8.02;;;;;;;10.06;78.48;98616.66;7355362;39;21062;31
2023/04/25 07:29:59;;;;;;;9.57;7.37;;;;;;;10.23;78.47;98622.81;7346363;39;20316;31
2023/04/25 07:35:32;;;;;;;8.17;7.27;;;;;;;10.22;78.75;98627.34;7355903;39;20274;31
2023/04/25 07:41:04;;;;;;;8.37;7.50;;;;;;;10.16;78.77;98636.16;7351056;39;20259;31
2023/04/25 07:46:22;;;;;;;7.80;7.00;;;;;;;10.24;78.43;98637.97;7336868;39;20240;31
2023/04/25 07:51:58;;;;;;;8.00;7.20;;;;;;;10.27;79.46;98645.69;7345257;39;20394;31
2023/04/25 07:57:19;;;;;;;8.30;7.40;;;;;;;10.31;79.09;98650.53;7361217;39;20239;31
2023/04/25 08:02:53;;;;;;;8.00;7.20;;;;;;;10.36;78.46;98664.31;7357812;39;20253;31
2023/04/25 08:08:26;;;;;;;8.77;6.80;;;;;;;10.32;78.34;98671.06;7406417;39;20254;31
2023/04/25 08:13:47;;;;;;;7.60;6.80;;;;;;;10.35;78.50;98677.97;7442704;39;20262;31
2023/04/25 08:19:17;;;;;;;9.00;8.20;;;;;;;10.32;79.10;98683.69;7401249;39;20263;31
2023/04/25 08:24:50;;;;;;;8.53;7.73;;;;;;;10.33;79.12;98696.16;7396880;39;20259;31
2023/04/25 08:30:20;;;;;;;7.50;6.80;;;;;;;10.34;78.92;98704.06;7369741;39;20236;31
2023/04/25 08:35:49;;;;;;;6.77;6.13;;;;;;;10.31;78.72;98711.69;7362964;39;20255;31
2023/04/25 08:41:20;;;;;;;6.87;5.80;;;;;;;10.35;78.77;98726.47;7406687;39;20355;31
2023/04/25 08:46:52;;;;;;;8.10;7.00;;;;;;;10.43;78.65;98731.81;7343175;39;20306;31
2023/04/25 08:52:24;;;;;;;10.20;7.47;;;;;;;10.38;79.00;98740.41;7335829;39;20365;31
2023/04/25 08:57:55;;;;;;;12.07;7.03;;;;;;;10.21;78.01;98748.75;7286386;39;20245;31
2023/04/25 09:03:27;;;;;;;9.97;6.40;;;;;;;9.91;78.26;98756.59;7271567;39;20252;31
2023/04/25 09:08:59;;;;;;;9.93;6.70;;;;;;;9.98;78.72;98763.94;7283089;39;20252;31
2023/04/25 09:14:32;;;;;;;9.77;6.90;;;;;;;9.94;78.75;98772.38;7259519;39;20244;31
2023/04/25 09:19:52;;;;;;;11.97;7.10;;;;;;;9.84;78.81;98782.50;7292901;39;20346;31
2023/04/25 09:25:28;;;;;;;8.20;6.43;;;;;;;9.82;79.41;98795.31;7335974;39;20321;31
2023/04/25 09:31:04;;;;;;;11.70;6.93;;;;;;;9.77;79.46;98803.03;7316771;39;20258;31
2023/04/25 09:36:39;;;;;;;11.60;6.37;;;;;;;9.77;79.25;98810.28;7418680;39;21157;31
2023/04/25 09:42:14;;;;;;;12.13;6.90;;;;;;;9.83;79.21;98809.56;7415735;39;20243;31
2023/04/25 09:47:50;;;;;;;12.23;7.87;;;;;;;9.86;79.59;98815.47;7398359;39;20258;31
2023/04/25 09:53:22;;;;;;;11.23;6.30;;;;;;;9.85;79.68;98824.56;7377776;39;20327;31
2023/04/25 09:58:54;;;;;;;16.45;9.40;;;;;;;9.86;79.96;98828.94;7313351;39;20275;31
2023/04/25 10:04:27;;;;;;;12.57;7.30;;;;;;;9.96;79.24;98836.78;7295164;39;20385;31
2023/04/25 10:15:03;;;;;;;8.43;5.97;;;;;;;9.64;82.19;98870.00;7347253;39;21061;31
2023/04/25 10:25:40;;;;;;;5.47;3.50;;;;;;;9.36;81.33;98882.94;7355141;39;21152;31
2023/04/25 10:36:22;;;;;;;4.33;3.30;;;;;;;9.26;81.78;98887.63;7344870;39;21193;31
2023/04/25 10:42:15;;;;;;;4.10;3.43;;;;;;;9.26;81.32;98889.50;7353676;39;20239;31
2023/04/25 10:52:51;;;;;;;4.20;3.03;;;;;;;9.57;81.06;98898.56;7419608;39;21155;31
2023/04/25 10:58:24;;;;;;;3.77;2.50;;;;;;;9.73;80.41;98900.44;7384452;39;20285;31
2023/04/25 11:09:13;;;;;;;4.70;3.73;;;;;;;10.02;79.75;98900.75;7359026;39;21350;31
2023/04/25 11:14:46;;;;;;;4.32;3.50;;;;;;;10.14;79.04;98898.53;7354095;39;20388;31
2023/04/25 11:25:23;;;;;;;4.05;3.15;;;;;;;10.44;77.94;98888.91;7405970;39;20282;31
2023/04/25 11:31:01;;;;;;;4.80;3.40;;;;;;;10.72;77.53;98882.88;7373381;39;20317;31
2023/04/25 11:36:19;;;;;;;4.67;3.77;;;;;;;11.04;75.90;98889.16;7357797;39;20239;31
2023/04/25 11:41:50;;;;;;;5.50;3.80;;;;;;;11.28;75.29;98879.03;7314576;39;20415;31
2023/04/25 11:47:23;;;;;;;6.13;4.13;;;;;;;11.46;75.40;98883.28;7354011;39;20376;31
2023/04/25 11:52:55;;;;;;;4.30;3.90;;;;;;;11.48;75.73;98890.22;7334010;39;21357;31
2023/04/25 12:03:35;;;;;;;5.47;4.30;;;;;;;11.24;74.83;98887.66;7280035;40;20264;31
2023/04/25 12:13:55;;;;;;;7.57;4.07;;;;;;;11.95;74.07;98870.25;7331936;39;20550;31
2023/04/25 12:24:46;;;;;;;7.20;4.43;;;;;;;11.85;73.44;98869.69;7403304;39;21139;31
2023/04/25 12:30:18;;;;;;;5.47;4.67;;;;;;;12.01;73.89;98891.16;7376604;39;20362;31
2023/04/25 12:35:35;;;;;;;4.83;4.33;;;;;;;12.16;72.97;98884.72;7318063;39;20240;31
2023/04/25 12:41:09;;;;;;;5.23;3.87;;;;;;;12.19;72.66;98894.34;7331939;39;20263;31
2023/04/25 12:46:41;;;;;;;5.65;3.40;;;;;;;12.21;72.42;98897.69;7333315;39;20326;31
2023/04/25 12:52:13;;;;;;;5.55;4.00;;;;;;;12.32;72.11;98899.97;7350452;39;20278;31
2023/04/25 13:02:50;;;;;;;8.30;4.10;;;;;;;12.33;71.83;98903.50;7159642;39;20280;31
2023/04/25 13:08:26;;;;;;;4.97;3.40;;;;;;;12.29;71.19;98897.59;7360563;39;20371;31
2023/04/25 13:13:57;;;;;;;5.13;3.50;;;;;;;12.26;70.06;98894.44;7336244;39;20639;31
2023/04/25 13:19:31;;;;;;;5.57;3.37;;;;;;;12.26;69.40;98892.56;7344956;39;20251;31
2023/04/25 13:25:02;;;;;;;5.87;4.30;;;;;;;12.18;71.04;98901.63;7340333;39;20400;31
2023/04/25 13:30:34;;;;;;;4.67;3.67;;;;;;;12.13;71.32;98906.72;7330422;39;20259;31
2023/04/25 13:36:08;;;;;;;7.63;4.70;;;;;;;12.12;70.73;98901.50;7356090;39;20240;31
2023/04/25 13:41:25;;;;;;;4.57;3.70;;;;;;;12.30;70.41;98910.09;7350631;39;20332;31
2023/04/25 13:46:42;;;;;;;6.13;4.20;;;;;;;12.28;70.32;98905.91;7342330;39;20256;31
2023/04/25 13:52:17;;;;;;;8.87;6.07;;;;;;;12.11;71.47;98897.94;7362807;39;20301;31
2023/04/25 13:57:49;;;;;;;10.30;7.70;;;;;;;11.86;72.15;98920.81;7395201;39;21103;31
2023/04/25 14:03:10;;;;;;;5.75;5.05;;;;;;;11.86;72.75;98914.56;7376345;39;20258;31
2023/04/25 14:08:43;;;;;;;6.20;4.27;;;;;;;11.86;73.16;98923.50;7336746;39;20399;31
2023/04/25 14:14:18;;;;;;;6.23;5.00;;;;;;;11.72;72.48;98930.53;7340351;39;20406;31
2023/04/25 14:19:50;;;;;;;7.33;4.57;;;;;;;11.66;72.45;98928.53;7356714;39;20260;31
2023/04/25 14:25:25;;;;;;;5.90;4.60;;;;;;;11.69;72.71;98922.78;7362331;39;20258;31
2023/04/25 14:30:45;;;;;;;4.60;4.10;;;;;;;11.73;73.12;98932.22;7399183;39;20239;31
2023/04/25 14:36:02;;;;;;;9.80;7.27;;;;;;;11.59;74.33;98932.97;7397482;39;20262;31
2023/04/25 14:41:34;;;;;;;6.05;4.65;;;;;;;11.53;74.86;98944.50;7376554;39;20275;31
2023/04/25 14:47:09;;;;;;;5.50;4.78;;;;;;;11.42;75.58;98944.88;7424275;39;20360;31
2023/04/25 14:52:45;;;;;;;4.82;4.22;;;;;;;11.20;77.06;98954.63;7424718;39;20320;31
2023/04/25 14:58:20;;;;;;;5.40;4.90;;;;;;;11.06;77.70;98968.00;7425409;39;20345;31
2023/04/25 15:03:37;;;;;;;8.23;5.30;;;;;;;10.91;77.66;98981.41;7424914;39;20298;31
2023/04/25 15:08:54;;;;;;;5.87;4.83;;;;;;;10.78;77.87;98983.81;7426801;39;21274;31
2023/04/25 15:14:27;;;;;;;7.37;5.00;;;;;;;10.74;78.58;98986.00;7406243;39;21217;31
2023/04/25 15:19:47;;;;;;;6.13;4.53;;;;;;;10.78;79.71;98981.94;7449022;39;21923;31
2023/04/25 15:25:20;;;;;;;4.80;4.30;;;;;;;10.78;79.75;98987.34;7357811;39;20335;31
2023/04/25 15:30:57;;;;;;;6.93;3.90;;;;;;;10.83;79.72;98979.59;7360579;39;20244;31
2023/04/25 15:36:18;;;;;;;5.27;3.70;;;;;;;10.88;78.90;98984.44;7379338;39;20278;31
2023/04/25 15:41:49;;;;;;;4.53;3.93;;;;;;;10.93;79.33;98990.13;7376145;39;20362;31
2023/04/25 15:47:20;;;;;;;4.65;3.50;;;;;;;10.91;79.68;98996.72;7348870;39;20243;31
2023/04/25 15:52:52;;;;;;;5.23;4.33;;;;;;;10.98;78.81;98987.75;7356892;39;20425;31
2023/04/25 15:58:10;;;;;;;4.43;3.33;;;;;;;10.98;78.70;98995.84;7293259;39;20240;31
2023/04/25 16:03:46;;;;;;;4.55;3.50;;;;;;;10.96;78.28;98997.06;7275972;39;20253;31
2023/04/25 16:09:06;;;;;;;5.73;3.43;;;;;;;11.03;78.41;98998.03;7276139;39;20318;31
2023/04/25 16:14:38;;;;;;;7.43;3.07;;;;;;;11.08;77.19;98984.88;7335507;39;20340;31
2023/04/25 16:20:10;;;;;;;5.43;3.17;;;;;;;11.13;76.89;98990.56;7310694;39;21289;31
2023/04/25 16:25:27;;;;;;;5.40;3.60;;;;;;;11.30;76.39;98992.19;7377744;39;20248;31
2023/04/25 16:30:47;;;;;;;6.10;3.20;;;;;;;11.32;76.82;98995.53;7379764;39;21141;31
2023/04/25 16:36:24;;;;;;;5.60;4.00;;;;;;;11.35;76.34;99005.16;7394160;39;21118;31
2023/04/25 16:41:45;;;;;;;6.13;4.17;;;;;;;11.35;75.83;99010.53;7443029;39;20951;31
2023/04/25 16:47:16;;;;;;;4.10;3.50;;;;;;;11.24;76.40;99015.31;7396306;39;20270;31
2023/04/25 16:53:04;;;;;;;8.47;5.20;;;;;;;11.28;76.37;99010.37;7355719;39;20283;31
2023/04/25 17:03:40;;;;;;;4.60;3.50;;;;;;;11.14;76.33;99024.63;7345003;39;20259;31
2023/04/25 17:09:13;;;;;;;6.70;5.57;;;;;;;11.10;77.25;99026.81;7399954;39;20243;31
2023/04/25 17:14:34;;;;;;;24.38;13.56;;;;;;;11.11;77.82;99041.16;7412347;39;20250;31
2023/04/25 17:19:50;;;;;;;51.67;29.10;;;;;;;11.07;78.41;99043.34;7446814;39;21195;31
2023/04/25 17:25:26;;;;;;;20.40;12.37;;;;;;;11.01;78.90;99044.06;7377269;39;20238;31
2023/04/25 17:30:46;;;;;;;19.03;12.60;;;;;;;11.01;78.42;99056.72;7334653;39;20260;31
2023/04/25 17:36:07;;;;;;;23.95;17.50;;;;;;;10.87;79.37;99071.75;7300248;40;20307;31
2023/04/25 17:41:40;;;;;;;17.05;11.70;;;;;;;10.74;79.62;99068.72;7355164;39;20306;31
2023/04/25 17:47:12;;;;;;;9.60;8.13;;;;;;;10.76;80.61;99055.91;7331375;39;20272;31
2023/04/25 17:52:46;;;;;;;9.10;6.27;;;;;;;10.68;79.97;99055.91;7348866;39;20271;31
2023/04/25 17:58:17;;;;;;;7.17;5.80;;;;;;;10.68;80.68;99064.00;7356047;39;20245;31
2023/04/25 18:03:36;;;;;;;6.63;5.70;;;;;;;10.72;80.00;99073.44;7332893;39;20275;31
2023/04/25 18:08:51;;;;;;;6.00;5.40;;;;;;;10.73;80.36;99085.91;7304763;39;20289;31
2023/04/25 18:14:26;;;;;;;7.40;4.40;;;;;;;10.69;80.38;99090.81;7336659;39;20440;31
2023/04/25 18:19:43;;;;;;;5.30;4.40;;;;;;;10.70;80.70;99095.19;7315573;39;20339;31
2023/04/25 18:25:03;;;;;;;4.80;3.85;;;;;;;10.68;80.52;99104.44;7317103;39;20436;31
2023/04/25 18:30:33;;;;;;;5.00;4.50;;;;;;;10.66;80.32;99110.00;7329260;39;20257;31
2023/04/25 18:35:50;;;;;;;5.90;4.80;;;;;;;10.65;80.30;99112.88;7316754;39;20258;31
2023/04/25 18:41:26;;;;;;;6.30;5.37;;;;;;;10.60;80.36;99110.69;7321240;39;20335;31
2023/04/25 18:47:01;;;;;;;5.30;4.80;;;;;;;10.52;80.92;99139.50;7409202;39;20262;31
2023/04/25 18:52:33;;;;;;;4.80;4.30;;;;;;;10.42;81.43;99147.72;7376137;39;20330;31
2023/04/25 18:58:06;;;;;;;8.07;6.00;;;;;;;10.47;81.50;99150.78;7376081;39;20410;31
2023/04/25 19:03:42;;;;;;;5.85;4.70;;;;;;;10.44;81.17;99150.25;7378439;39;20337;31
2023/04/25 19:08:59;;;;;;;9.63;5.10;;;;;;;10.45;81.65;99160.00;7317549;39;20414;31
2023/04/25 19:14:35;;;;;;;6.20;5.57;;;;;;;10.40;81.80;99155.13;7318633;39;20240;31
2023/04/25 19:20:12;;;;;;;6.60;5.43;;;;;;;10.35;81.64;99160.19;7356720;39;20330;31
2023/04/25 19:25:46;;;;;;;6.60;5.10;;;;;;;10.35;81.36;99168.28;7361821;39;21947;31
2023/04/25 19:31:21;;;;;;;7.00;5.47;;;;;;;10.37;81.37;99177.87;7379693;39;20358;31
2023/04/25 19:36:53;;;;;;;6.23;4.97;;;;;;;10.43;81.45;99183.59;7332872;39;20259;31
2023/04/25 19:42:24;;;;;;;7.67;5.07;;;;;;;10.44;81.46;99188.00;7101961;39;21368;31
2023/04/25 19:47:56;;;;;;;5.30;4.53;;;;;;;10.37;81.30;99196.72;7274938;40;20269;31
2023/04/25 19:53:29;;;;;;;7.83;6.60;;;;;;;10.42;81.45;99193.53;7275861;40;20473;31
2023/04/25 19:59:01;;;;;;;7.00;5.47;;;;;;;10.36;81.42;99186.94;7282360;39;20291;31
2023/04/25 20:04:33;;;;;;;5.90;4.57;;;;;;;10.34;80.89;99191.69;7340675;39;20333;31
2023/04/25 20:10:07;;;;;;;9.30;5.03;;;;;;;10.38;81.15;99201.13;7315418;39;20248;31
2023/04/25 20:20:44;;;;;;;8.66;5.44;;;;;;;10.37;81.19;99199.41;7377031;39;20270;31
2023/04/25 20:26:17;;;;;;;8.00;6.00;;;;;;;10.29;81.86;99199.41;7320017;39;20263;31
2023/04/25 20:31:52;;;;;;;7.47;6.17;;;;;;;10.22;81.39;99201.06;7314093;39;20264;31
2023/04/25 20:37:30;;;;;;;6.93;5.50;;;;;;;10.14;81.60;99197.47;7316254;39;20322;31
2023/04/25 20:43:03;;;;;;;8.13;5.70;;;;;;;10.06;81.03;99203.66;7296949;39;20256;31
2023/04/25 20:48:31;;;;;;;8.60;5.43;;;;;;;9.98;81.19;99218.97;7325702;39;20259;31
2023/04/25 20:53:49;;;;;;;8.07;5.37;;;;;;;9.96;81.43;99219.97;7355111;39;20259;31
2023/04/25 20:59:24;;;;;;;6.50;4.90;;;;;;;9.90;81.17;99217.09;7373711;39;20250;31
2023/04/25 21:04:53;;;;;;;5.20;4.60;;;;;;;9.84;80.78;99221.25;7397522;39;20465;31
2023/04/25 21:10:40;;;;;;;6.73;4.57;;;;;;;9.69;80.52;99222.87;7354939;39;20387;31
2023/04/25 21:21:18;;;;;;;7.40;4.57;;;;;;;9.41;80.50;99229.44;7313073;39;20276;31
2023/04/25 21:31:55;;;;;;;8.83;4.43;;;;;;;9.45;80.62;99238.87;7372822;39;21105;31
2023/04/25 21:37:27;;;;;;;6.07;4.20;;;;;;;9.38;79.92;99235.12;7396436;39;20274;31
2023/04/25 21:42:59;;;;;;;4.57;4.00;;;;;;;9.27;79.91;99230.00;7399925;39;20246;31
2023/04/25 21:48:34;;;;;;;6.50;4.10;;;;;;;9.08;78.46;99243.66;7354848;39;20252;31
2023/04/25 21:54:10;;;;;;;6.37;4.10;;;;;;;8.87;79.78;99244.81;7366404;39;20294;31
2023/04/25 21:59:31;;;;;;;4.97;4.00;;;;;;;8.83;79.16;99251.50;7355704;39;20287;31
2023/04/25 22:05:05;;;;;;;6.40;3.40;;;;;;;8.77;78.67;99246.75;7373847;39;20251;31
2023/04/25 22:10:41;;;;;;;4.03;3.43;;;;;;;8.75;78.25;99253.28;7402844;39;20245;31
2023/04/25 22:16:16;;;;;;;4.97;3.40;;;;;;;8.51;77.58;99252.03;7376887;39;20251;31
2023/04/25 22:21:36;;;;;;;7.13;3.60;;;;;;;8.22;78.22;99259.41;7314471;39;20241;31
2023/04/25 22:27:10;;;;;;;7.43;3.80;;;;;;;7.85;78.83;99270.19;7311828;39;20244;31
2023/04/25 22:32:42;;;;;;;6.87;3.70;;;;;;;7.60;79.22;99273.50;7318508;39;20248;31
2023/04/25 22:38:18;;;;;;;8.27;3.80;;;;;;;7.74;79.38;99267.69;7356688;39;20258;31
2023/04/25 22:43:54;;;;;;;7.47;4.10;;;;;;;7.74;79.37;99273.03;7443088;39;21844;31
2023/04/25 22:49:26;;;;;;;11.37;3.93;;;;;;;7.75;79.26;99273.91;7360322;39;20247;31
2023/04/25 22:54:43;;;;;;;6.73;3.90;;;;;;;7.72;78.98;99278.56;7357061;39;20333;31
2023/04/25 23:00:18;;;;;;;6.55;3.70;;;;;;;7.71;77.62;99278.72;7317589;39;20335;31
2023/04/25 23:05:33;;;;;;;5.47;3.23;;;;;;;7.68;78.49;99281.66;7308804;39;20408;31
2023/04/25 23:11:08;;;;;;;6.67;3.30;;;;;;;7.63;78.09;99283.97;7360221;39;20248;31
2023/04/25 23:16:41;;;;;;;5.37;2.60;;;;;;;7.46;76.82;99290.91;7328559;39;20259;31
2023/04/25 23:22:16;;;;;;;6.20;2.95;;;;;;;7.19;77.41;99298.88;7331217;39;20232;31
2023/04/25 23:27:51;;;;;;;5.90;3.17;;;;;;;6.92;76.68;99304.09;7336681;39;20244;31
2023/04/25 23:33:24;;;;;;;6.10;3.00;;;;;;;6.83;77.64;99305.81;7336166;39;20250;31
2023/04/25 23:38:41;;;;;;;4.03;3.07;;;;;;;6.77;78.18;99304.53;7340443;39;20255;31
2023/04/25 23:44:16;;;;;;;5.80;2.90;;;;;;;6.73;78.24;99300.44;7356523;39;20243;31
2023/04/25 23:49:50;;;;;;;3.87;2.80;;;;;;;6.72;77.96;99306.75;7378438;39;20239;31
2023/04/25 23:55:22;;;;;;;7.70;2.80;;;;;;;6.60;78.62;99318.59;7338300;39;20283;31
